createdAt,value
2022-09-03T00:02:19.102Z,20.40
2022-09-03T00:05:12.081Z,20.40
2022-09-03T00:07:56.776Z,20.30
2022-09-03T00:10:43.696Z,20.30
2022-09-03T00:13:14.143Z,20.30
2022-09-03T00:15:41.107Z,20.30
2022-09-03T00:18:13.928Z,20.30
2022-09-03T00:20:42.717Z,20.30
2022-09-03T00:23:12.873Z,20.20
2022-09-03T00:25:44.758Z,20.20
2022-09-03T00:28:15.207Z,20.20
2022-09-03T00:30:42.683Z,20.10
2022-09-03T00:33:13.711Z,20.10
2022-09-03T00:35:45.689Z,20.10
2022-09-03T00:38:12.349Z,20.00
2022-09-03T00:40:57.533Z,20.00
2022-09-03T00:43:24.118Z,20.00
2022-09-03T00:45:54.249Z,20.00
2022-09-03T00:48:28.275Z,20.00
2022-09-03T00:51:01.987Z,20.00
2022-09-03T00:53:38.321Z,20.00
2022-09-03T00:56:23.305Z,19.90
2022-09-03T00:58:55.659Z,19.90
2022-09-03T01:01:28.227Z,19.80
2022-09-03T01:04:07.616Z,19.70
2022-09-03T01:06:41.898Z,19.70
2022-09-03T01:09:28.821Z,19.60
2022-09-03T01:12:08.091Z,19.60
2022-09-03T01:14:53.570Z,19.60
2022-09-03T01:17:20.179Z,19.60
2022-09-03T01:20:08.833Z,19.60
2022-09-03T01:22:40.758Z,19.60
2022-09-03T01:25:10.916Z,19.60
2022-09-03T01:27:37.641Z,19.50
2022-09-03T01:30:06.559Z,19.50
2022-09-03T01:32:50.923Z,19.60
2022-09-03T01:35:36.469Z,19.60
2022-09-03T01:38:11.510Z,19.60
2022-09-03T01:40:51.832Z,19.60
2022-09-03T01:43:22.846Z,19.50
2022-09-03T01:46:00.841Z,19.40
2022-09-03T01:48:34.570Z,19.30
2022-09-03T01:51:04.156Z,19.20
2022-09-03T01:53:36.839Z,19.10
2022-09-03T01:56:19.555Z,19.00
2022-09-03T01:58:49.532Z,18.90
2022-09-03T02:01:24.889Z,18.80
2022-09-03T02:03:51.607Z,18.80
2022-09-03T02:06:20.722Z,18.80
2022-09-03T02:08:47.402Z,18.70
2022-09-03T02:11:14.023Z,18.70
2022-09-03T02:13:40.796Z,18.70
2022-09-03T02:16:11.448Z,18.70
2022-09-03T02:18:41.667Z,18.70
2022-09-03T02:21:10.170Z,18.80
2022-09-03T02:23:39.371Z,18.80
2022-09-03T02:26:06.872Z,18.80
2022-09-03T02:28:33.896Z,18.80
2022-09-03T02:31:00.742Z,18.80
2022-09-03T02:33:27.932Z,18.70
2022-09-03T02:35:55.280Z,18.80
2022-09-03T02:38:25.698Z,18.70
2022-09-03T02:40:56.238Z,18.70
2022-09-03T02:43:29.823Z,18.70
2022-09-03T02:46:02.440Z,18.70
2022-09-03T02:48:29.085Z,18.70
2022-09-03T02:50:56.039Z,18.70
2022-09-03T02:53:22.955Z,18.70
2022-09-03T02:55:49.785Z,18.60
2022-09-03T02:58:16.419Z,18.60
2022-09-03T03:00:47.531Z,18.60
2022-09-03T03:03:14.087Z,18.60
2022-09-03T03:05:44.905Z,18.70
2022-09-03T03:08:12.266Z,18.70
2022-09-03T03:10:39.026Z,18.70
2022-09-03T03:13:05.667Z,18.70
2022-09-03T03:15:32.289Z,18.80
2022-09-03T03:17:58.919Z,18.80
2022-09-03T03:20:25.556Z,18.80
2022-09-03T03:22:52.220Z,18.80
2022-09-03T03:25:18.989Z,18.80
2022-09-03T03:27:45.686Z,18.80
2022-09-03T03:30:13.094Z,18.90
2022-09-03T03:32:40.133Z,18.90
2022-09-03T03:35:07.373Z,18.90
2022-09-03T03:37:35.872Z,18.90
2022-09-03T03:40:03.179Z,18.90
2022-09-03T03:42:32.660Z,19.00
2022-09-03T03:44:59.414Z,19.00
2022-09-03T03:47:26.017Z,19.00
2022-09-03T03:49:52.774Z,19.10
2022-09-03T03:52:19.514Z,19.00
2022-09-03T03:54:46.275Z,19.10
2022-09-03T03:57:13.229Z,19.10
2022-09-03T03:59:39.849Z,19.10
2022-09-03T04:02:06.948Z,19.10
2022-09-03T04:04:33.611Z,19.10
2022-09-03T04:07:00.195Z,19.10
2022-09-03T04:09:26.786Z,19.10
2022-09-03T04:11:53.466Z,19.00
2022-09-03T04:14:20.086Z,18.90
2022-09-03T04:16:46.985Z,18.70
2022-09-03T04:19:13.789Z,18.60
2022-09-03T04:21:40.411Z,18.60
2022-09-03T04:24:07.153Z,18.40
2022-09-03T04:26:36.411Z,18.40
2022-09-03T04:29:04.330Z,18.20
2022-09-03T04:31:31.895Z,18.20
2022-09-03T04:33:58.576Z,18.00
2022-09-03T04:36:27.766Z,18.00
2022-09-03T04:39:03.724Z,18.00
2022-09-03T04:41:31.435Z,18.10
2022-09-03T04:44:01.562Z,18.20
2022-09-03T04:46:33.298Z,18.20
2022-09-03T04:49:00.731Z,18.30
2022-09-03T04:51:31.220Z,18.20
2022-09-03T04:53:59.725Z,18.30
2022-09-03T04:56:28.432Z,18.40
2022-09-03T04:59:03.050Z,18.40
2022-09-03T05:01:31.907Z,18.50
2022-09-03T05:03:59.163Z,18.50
2022-09-03T05:06:26.241Z,18.50
2022-09-03T05:08:53.887Z,18.50
2022-09-03T05:11:20.894Z,18.60
2022-09-03T05:13:49.027Z,18.70
2022-09-03T05:16:16.113Z,18.70
2022-09-03T05:18:42.980Z,18.80
2022-09-03T05:21:10.671Z,18.90
2022-09-03T05:23:42.387Z,18.80
2022-09-03T05:26:13.279Z,18.90
2022-09-03T05:28:40.703Z,18.90
2022-09-03T05:31:07.442Z,18.90
2022-09-03T05:33:35.699Z,18.90
2022-09-03T05:36:03.272Z,19.00
2022-09-03T05:38:29.974Z,18.90
2022-09-03T05:41:00.583Z,19.00
2022-09-03T05:43:28.067Z,19.00
2022-09-03T05:46:15.395Z,18.80
2022-09-03T05:48:43.122Z,18.60
2022-09-03T05:51:09.692Z,18.40
2022-09-03T05:53:37.532Z,18.30
2022-09-03T05:56:06.298Z,18.10
2022-09-03T05:58:36.647Z,18.00
2022-09-03T06:01:10.695Z,17.80
2022-09-03T06:03:37.398Z,17.70
2022-09-03T06:06:05.358Z,17.60
2022-09-03T06:08:32.342Z,17.60
2022-09-03T06:10:59.511Z,17.60
2022-09-03T06:13:26.160Z,17.70
2022-09-03T06:16:00.095Z,17.70
2022-09-03T06:18:27.090Z,17.70
2022-09-03T06:20:57.067Z,17.60
2022-09-03T06:23:24.321Z,17.60
2022-09-03T06:26:04.490Z,17.50
2022-09-03T06:28:36.043Z,17.50
2022-09-03T06:31:03.427Z,17.60
2022-09-03T06:33:31.511Z,17.60
2022-09-03T06:35:59.439Z,17.70
2022-09-03T06:38:31.907Z,17.60
2022-09-03T06:41:03.166Z,17.60
2022-09-03T06:43:31.235Z,17.50
2022-09-03T06:45:59.110Z,17.40
2022-09-03T06:48:26.622Z,17.40
2022-09-03T06:51:02.581Z,17.40
2022-09-03T06:53:33.322Z,17.40
2022-09-03T06:56:01.190Z,17.50
2022-09-03T06:58:31.966Z,17.50
2022-09-03T07:01:06.842Z,17.50
2022-09-03T07:03:34.139Z,17.40
2022-09-03T07:06:10.578Z,17.40
2022-09-03T07:08:37.286Z,17.40
2022-09-03T07:11:09.131Z,17.30
2022-09-03T07:13:36.495Z,17.40
2022-09-03T07:16:04.387Z,17.40
2022-09-03T07:18:31.885Z,17.30
2022-09-03T07:20:59.954Z,17.30
2022-09-03T07:23:26.700Z,17.40
2022-09-03T07:25:56.945Z,17.40
2022-09-03T07:28:24.840Z,17.40
2022-09-03T07:30:52.041Z,17.40
2022-09-03T07:33:19.092Z,17.30
2022-09-03T07:35:46.312Z,17.30
2022-09-03T07:38:24.007Z,17.20
2022-09-03T07:40:57.636Z,17.10
2022-09-03T07:43:24.591Z,17.10
2022-09-03T07:45:51.879Z,17.20
2022-09-03T07:48:18.959Z,17.30
2022-09-03T07:50:47.852Z,17.30
2022-09-03T07:53:16.926Z,17.30
2022-09-03T07:55:44.639Z,17.40
2022-09-03T07:58:12.527Z,17.40
2022-09-03T08:00:39.616Z,17.40
2022-09-03T08:03:08.522Z,17.40
2022-09-03T08:05:36.369Z,17.40
2022-09-03T08:08:03.768Z,17.40
2022-09-03T08:10:36.147Z,17.60
2022-09-03T08:13:05.624Z,17.70
2022-09-03T08:15:32.811Z,17.80
2022-09-03T08:18:03.750Z,17.80
2022-09-03T08:20:32.946Z,17.80
2022-09-03T08:23:02.923Z,17.90
2022-09-03T08:25:29.871Z,18.00
2022-09-03T08:27:58.659Z,17.90
2022-09-03T08:30:26.531Z,17.90
2022-09-03T08:32:53.366Z,17.80
2022-09-03T08:35:21.491Z,17.90
2022-09-03T08:37:54.807Z,18.10
2022-09-03T08:40:24.247Z,18.30
2022-09-03T08:43:09.821Z,18.60
2022-09-03T08:45:38.162Z,18.80
2022-09-03T08:48:10.413Z,18.90
2022-09-03T08:50:49.224Z,19.00
2022-09-03T08:53:39.078Z,19.10
2022-09-03T08:56:25.714Z,19.30
2022-09-03T08:58:52.308Z,19.40
2022-09-03T09:01:37.260Z,19.50
2022-09-03T09:04:03.983Z,19.40
2022-09-03T09:06:31.199Z,19.30
2022-09-03T09:09:17.659Z,19.20
2022-09-03T09:12:03.388Z,19.70
2022-09-03T09:14:40.189Z,21.00
2022-09-03T09:17:28.201Z,22.80
2022-09-03T09:20:04.846Z,23.80
2022-09-03T09:22:41.856Z,24.00
2022-09-03T09:25:16.922Z,24.10
2022-09-03T09:28:03.519Z,23.50
2022-09-03T09:30:31.373Z,22.90
2022-09-03T09:33:00.807Z,22.40
2022-09-03T09:35:27.480Z,22.20
2022-09-03T09:37:55.315Z,22.00
2022-09-03T09:40:35.218Z,21.70
2022-09-03T09:43:04.629Z,21.40
2022-09-03T09:45:34.206Z,20.90
2022-09-03T09:48:01.998Z,20.60
2022-09-03T09:50:28.775Z,20.40
2022-09-03T09:53:14.446Z,20.40
2022-09-03T09:55:54.779Z,20.40
2022-09-03T09:58:23.562Z,20.50
2022-09-03T10:01:04.379Z,20.40
2022-09-03T10:03:35.673Z,20.40
2022-09-03T10:06:47.995Z,20.30
2022-09-03T10:09:16.108Z,20.40
2022-09-03T10:11:45.180Z,20.60
2022-09-03T10:14:35.148Z,20.90
2022-09-03T10:17:22.160Z,20.80
2022-09-03T10:20:21.586Z,21.00
2022-09-03T10:22:56.925Z,21.10
2022-09-03T10:25:26.552Z,21.10
2022-09-03T10:27:56.760Z,21.10
2022-09-03T10:30:26.581Z,20.90
2022-09-03T10:33:10.806Z,21.10
2022-09-03T10:35:45.801Z,21.20
2022-09-03T10:38:17.753Z,21.20
2022-09-03T10:40:55.097Z,21.30
2022-09-03T10:43:41.571Z,21.10
2022-09-03T10:46:11.212Z,21.40
2022-09-03T10:48:41.785Z,22.50
2022-09-03T10:51:12.169Z,24.30
2022-09-03T10:53:50.078Z,25.90
2022-09-03T10:56:17.418Z,27.10
2022-09-03T10:58:44.123Z,26.90
2022-09-03T11:01:26.876Z,26.00
2022-09-03T11:04:01.255Z,25.40
2022-09-03T11:06:35.567Z,25.00
2022-09-03T11:09:14.451Z,24.90
2022-09-03T11:11:44.187Z,25.40
2022-09-03T11:14:13.568Z,26.60
2022-09-03T11:16:43.744Z,28.10
2022-09-03T11:19:13.094Z,28.80
2022-09-03T11:21:41.953Z,29.00
2022-09-03T11:24:13.999Z,28.50
2022-09-03T11:26:44.804Z,27.50
2022-09-03T11:29:25.239Z,27.00
2022-09-03T11:31:58.637Z,26.70
2022-09-03T11:34:32.673Z,26.00
2022-09-03T11:37:07.579Z,25.80
2022-09-03T11:39:39.588Z,26.10
2022-09-03T11:42:10.609Z,26.30
2022-09-03T11:44:50.990Z,26.80
2022-09-03T11:47:25.031Z,28.10
2022-09-03T11:49:52.851Z,28.20
2022-09-03T11:52:29.739Z,27.50
2022-09-03T11:54:56.387Z,27.10
2022-09-03T11:57:26.179Z,26.70
2022-09-03T11:59:52.971Z,26.00
2022-09-03T12:02:22.645Z,25.40
2022-09-03T12:05:07.199Z,24.90
2022-09-03T12:07:52.805Z,24.80
2022-09-03T12:10:32.508Z,25.00
2022-09-03T12:13:17.023Z,24.80
2022-09-03T12:15:56.122Z,24.40
2022-09-03T12:18:24.689Z,24.70
2022-09-03T12:20:59.957Z,26.10
2022-09-03T12:23:42.365Z,28.50
2022-09-03T12:26:14.961Z,29.90
2022-09-03T12:28:49.142Z,29.60
2022-09-03T12:31:21.552Z,29.10
2022-09-03T12:33:49.187Z,28.00
2022-09-03T12:36:16.357Z,27.30
2022-09-03T12:39:09.892Z,28.40
2022-09-03T12:41:31.223Z,29.10
2022-09-03T12:43:59.867Z,29.00
2022-09-03T12:46:33.624Z,30.00
2022-09-03T12:52:05.970Z,31.60
2022-09-03T12:54:34.173Z,30.30
2022-09-03T12:57:01.223Z,28.90
2022-09-03T12:59:28.702Z,27.90
2022-09-03T13:01:58.349Z,27.80
2022-09-03T13:04:27.055Z,28.10
2022-09-03T13:06:56.878Z,28.10
2022-09-03T13:09:24.142Z,28.80
2022-09-03T13:11:52.528Z,30.10
2022-09-03T13:14:20.219Z,30.90
2022-09-03T13:16:47.376Z,31.70
2022-09-03T13:19:32.360Z,32.00
2022-09-03T13:21:58.929Z,31.50
2022-09-03T13:24:32.362Z,31.10
2022-09-03T13:27:06.113Z,31.60
2022-09-03T13:29:43.805Z,31.50
2022-09-03T13:32:26.406Z,31.40
2022-09-03T13:34:57.225Z,30.80
2022-09-03T13:37:23.955Z,29.30
2022-09-03T13:39:55.889Z,28.80
2022-09-03T13:42:35.798Z,29.40
2022-09-03T13:45:11.247Z,30.60
2022-09-03T13:47:37.843Z,31.30
2022-09-03T13:50:22.782Z,30.90
2022-09-03T13:52:57.384Z,30.30
2022-09-03T13:55:28.795Z,29.40
2022-09-03T13:58:06.999Z,28.60
2022-09-03T14:00:40.180Z,28.50
2022-09-03T14:03:13.186Z,28.10
2022-09-03T14:05:58.821Z,27.40
2022-09-03T14:08:28.475Z,27.50
2022-09-03T14:10:59.742Z,27.30
2022-09-03T14:13:38.579Z,26.90
2022-09-03T14:16:05.855Z,26.60
2022-09-03T14:18:39.709Z,26.10
2022-09-03T14:21:18.054Z,25.70
2022-09-03T14:23:51.283Z,25.50
2022-09-03T14:26:35.934Z,25.20
2022-09-03T14:29:11.587Z,24.90
2022-09-03T14:31:40.943Z,24.60
2022-09-03T14:34:12.904Z,24.40
2022-09-03T14:36:58.540Z,24.20
2022-09-03T14:39:32.586Z,23.90
2022-09-03T14:42:18.246Z,23.40
2022-09-03T14:45:03.826Z,22.10
2022-09-03T14:47:30.574Z,21.10
2022-09-03T14:50:16.188Z,20.60
2022-09-03T14:52:56.098Z,20.30
2022-09-03T14:55:29.531Z,20.30
2022-09-03T14:57:56.233Z,20.20
2022-09-03T15:00:34.088Z,20.10
2022-09-03T15:03:20.415Z,20.20
2022-09-03T15:05:57.646Z,20.20
2022-09-03T15:08:42.924Z,20.20
2022-09-03T15:11:17.357Z,20.10
2022-09-03T15:13:50.167Z,20.20
2022-09-03T15:16:36.062Z,20.20
2022-09-03T15:19:25.791Z,20.30
2022-09-03T15:21:52.509Z,20.20
2022-09-03T15:24:30.082Z,20.30
2022-09-03T15:27:11.091Z,20.30
2022-09-03T15:29:56.792Z,20.30
2022-09-03T15:32:26.861Z,20.30
2022-09-03T15:35:04.114Z,20.40
2022-09-03T15:37:33.651Z,20.40
2022-09-03T15:40:16.588Z,20.40
2022-09-03T15:42:44.445Z,20.40
2022-09-03T15:45:19.438Z,20.30
2022-09-03T15:47:51.530Z,20.30
2022-09-03T15:50:35.250Z,20.30
2022-09-03T15:53:11.080Z,20.30
2022-09-03T15:55:39.271Z,20.30
2022-09-03T15:58:10.454Z,20.30
2022-09-03T16:00:46.628Z,20.30
2022-09-03T16:03:23.825Z,20.40
2022-09-03T16:05:55.342Z,20.50
2022-09-03T16:08:32.583Z,20.60
2022-09-03T16:11:08.881Z,20.60
2022-09-03T16:13:43.729Z,20.80
2022-09-03T16:16:12.942Z,21.00
2022-09-03T16:18:44.612Z,21.10
2022-09-03T16:21:28.918Z,21.20
2022-09-03T16:23:58.971Z,21.30
2022-09-03T16:26:36.909Z,21.50
2022-09-03T16:29:08.451Z,21.70
2022-09-03T16:31:41.274Z,21.70
2022-09-03T16:34:32.650Z,21.70
2022-09-03T16:37:07.764Z,21.80
2022-09-03T16:39:57.870Z,21.80
2022-09-03T16:42:32.277Z,21.80
2022-09-03T16:45:00.025Z,21.80
2022-09-03T16:47:41.266Z,21.80
2022-09-03T16:50:07.870Z,21.70
2022-09-03T16:52:54.223Z,21.80
2022-09-03T16:55:27.727Z,21.80
2022-09-03T16:57:59.729Z,21.80
2022-09-03T17:00:37.390Z,21.80
2022-09-03T17:03:12.328Z,21.80
2022-09-03T17:05:57.859Z,21.80
2022-09-03T17:08:31.715Z,21.90
2022-09-03T17:11:17.202Z,21.70
2022-09-03T17:14:02.733Z,21.60
2022-09-03T17:16:53.285Z,21.60
2022-09-03T17:19:39.151Z,21.50
2022-09-03T17:22:19.840Z,21.40
2022-09-03T17:24:54.696Z,21.30
2022-09-03T17:27:28.490Z,21.10
2022-09-03T17:30:00.850Z,21.10
2022-09-03T17:32:46.747Z,21.00
2022-09-03T17:35:19.709Z,20.90
2022-09-03T17:38:16.017Z,20.90
2022-09-03T17:40:56.008Z,20.80
2022-09-03T17:43:33.023Z,20.70
2022-09-03T17:46:09.279Z,20.60
2022-09-03T17:48:52.371Z,20.50
2022-09-03T17:51:22.088Z,20.50
2022-09-03T17:53:52.035Z,20.40
2022-09-03T17:56:22.736Z,20.30
2022-09-03T17:58:54.084Z,20.20
2022-09-03T18:01:26.109Z,20.20
2022-09-03T18:03:54.533Z,20.20
2022-09-03T18:06:34.147Z,20.20
2022-09-03T18:09:01.216Z,20.20
2022-09-03T18:11:33.918Z,20.20
2022-09-03T18:14:00.765Z,20.20
2022-09-03T18:16:28.825Z,20.20
2022-09-03T18:19:19.200Z,20.20
2022-09-03T18:22:06.229Z,20.20
2022-09-03T18:25:01.920Z,20.20
2022-09-03T18:27:52.260Z,20.10
2022-09-03T18:30:37.654Z,20.00
2022-09-03T18:33:23.089Z,19.90
2022-09-03T18:36:08.329Z,19.80
2022-09-03T18:38:55.262Z,19.70
2022-09-03T18:41:43.399Z,19.70
2022-09-03T18:44:34.500Z,19.60
2022-09-03T18:48:02.197Z,19.60
2022-09-03T18:50:44.076Z,19.50
2022-09-03T18:53:50.072Z,19.40
2022-09-03T18:56:35.591Z,19.30
2022-09-03T18:59:37.043Z,19.20
2022-09-03T19:02:29.264Z,19.20
2022-09-03T19:05:18.210Z,19.10
2022-09-03T19:08:08.469Z,19.10
2022-09-03T19:11:07.423Z,19.10
2022-09-03T19:13:54.630Z,19.10
2022-09-03T19:16:49.491Z,19.10
2022-09-03T19:19:59.223Z,19.10
2022-09-03T19:22:54.612Z,19.20
2022-09-03T19:25:40.427Z,19.20
2022-09-03T19:28:31.369Z,19.20
2022-09-03T19:31:35.582Z,19.30
2022-09-03T19:34:32.843Z,19.30
2022-09-03T19:37:23.201Z,19.30
2022-09-03T19:40:24.146Z,19.40
2022-09-03T19:43:16.137Z,19.30
2022-09-03T19:46:01.234Z,19.20
2022-09-03T19:49:05.325Z,19.10
2022-09-03T19:51:58.678Z,18.90
2022-09-03T19:54:45.192Z,18.90
2022-09-03T19:57:32.246Z,18.80
2022-09-03T20:00:17.899Z,18.80
2022-09-03T20:03:14.786Z,18.70
2022-09-03T20:06:00.239Z,18.70
2022-09-03T20:08:45.791Z,18.60
2022-09-03T20:11:17.527Z,18.60
2022-09-03T20:14:03.059Z,18.60
2022-09-03T20:16:40.107Z,18.60
2022-09-03T20:19:21.354Z,18.60
2022-09-03T20:21:52.499Z,18.50
2022-09-03T20:24:21.157Z,18.50
2022-09-03T20:27:05.223Z,18.50
2022-09-03T20:29:34.936Z,18.40
2022-09-03T20:32:13.251Z,18.40
2022-09-03T20:34:49.923Z,18.30
2022-09-03T20:37:36.158Z,18.30
2022-09-03T20:40:08.594Z,18.30
2022-09-03T20:42:54.043Z,18.30
2022-09-03T20:45:26.654Z,18.30
2022-09-03T20:48:05.565Z,18.30
2022-09-03T20:50:45.355Z,18.30
2022-09-03T20:53:21.124Z,18.30
2022-09-03T20:55:54.759Z,18.30
2022-09-03T20:58:30.097Z,18.20
2022-09-03T21:01:03.345Z,18.20
2022-09-03T21:03:34.027Z,18.20
2022-09-03T21:06:26.818Z,18.20
2022-09-03T21:08:53.545Z,18.20
2022-09-03T21:11:20.080Z,18.10
2022-09-03T21:14:09.827Z,18.10
2022-09-03T21:16:54.533Z,18.10
2022-09-03T21:19:43.363Z,18.10
2022-09-03T21:22:39.155Z,18.00
2022-09-03T21:25:07.411Z,17.90
2022-09-03T21:27:37.344Z,18.00
2022-09-03T21:30:06.195Z,17.90
2022-09-03T21:32:53.924Z,17.90
2022-09-03T21:35:27.431Z,17.90
2022-09-03T21:38:07.815Z,17.90
2022-09-03T21:40:42.918Z,17.90
2022-09-03T21:43:13.275Z,17.90
2022-09-03T21:45:57.008Z,17.90
2022-09-03T21:48:33.794Z,17.80
2022-09-03T21:51:01.187Z,17.80
2022-09-03T21:53:44.205Z,17.80
2022-09-03T21:56:30.443Z,17.80
2022-09-03T21:59:06.983Z,17.70
2022-09-03T22:01:49.071Z,17.70
2022-09-03T22:04:15.751Z,17.70
2022-09-03T22:06:45.505Z,17.60
2022-09-03T22:09:15.132Z,17.60
2022-09-03T22:11:52.250Z,17.60
2022-09-03T22:14:21.194Z,17.60
2022-09-03T22:16:56.779Z,17.60
2022-09-03T22:19:23.412Z,17.60
2022-09-03T22:21:59.609Z,17.60
2022-09-03T22:24:34.318Z,17.50
2022-09-03T22:27:18.325Z,17.50
2022-09-03T22:29:54.854Z,17.50
2022-09-03T22:32:33.633Z,17.50
2022-09-03T22:35:05.431Z,17.50
2022-09-03T22:37:48.460Z,17.50
2022-09-03T22:40:44.531Z,17.50
2022-09-03T22:43:15.610Z,17.50
2022-09-03T22:45:48.428Z,17.40
2022-09-03T22:48:15.046Z,17.40
2022-09-03T22:50:50.689Z,17.40
2022-09-03T22:53:20.354Z,17.40
2022-09-03T22:56:07.231Z,17.40
2022-09-03T22:59:07.054Z,17.30
2022-09-03T23:01:36.475Z,17.30
2022-09-03T23:04:05.925Z,17.20
2022-09-03T23:06:34.154Z,17.20
2022-09-03T23:09:08.859Z,17.20
2022-09-03T23:11:39.506Z,17.20
2022-09-03T23:14:14.111Z,17.20
2022-09-03T23:16:42.691Z,17.20
2022-09-03T23:22:03.426Z,17.20
2022-09-03T23:24:36.614Z,17.10
2022-09-03T23:27:06.319Z,17.10
2022-09-03T23:29:41.639Z,17.10
2022-09-03T23:32:09.372Z,17.10
2022-09-03T23:34:36.508Z,17.00
2022-09-03T23:37:40.053Z,17.00
2022-09-03T23:40:23.291Z,17.00
2022-09-03T23:42:58.641Z,17.00
2022-09-03T23:45:25.269Z,17.00
2022-09-03T23:48:02.350Z,17.00
2022-09-03T23:50:33.328Z,17.00
2022-09-03T23:53:16.319Z,17.00
2022-09-03T23:56:01.709Z,17.00
2022-09-03T23:58:34.269Z,17.00
